ISK weather

CLOSED ─░skenderun Airport
─░skenderun, Hatay Province, Turkey

Public forecast

Using degrees Celsius for public forecast. Weather courtesy of forecast.io.

METAR (pilot weather report)

Closest report is Hatay Airport, 14.1 nm (26.2 km) SSE. Retrieved 2019/06/19 09:50 UTC (30 minutes ago):

LTDA 190950Z 27015KT 230V300 9999 SCT035 31/17 Q1008 NOSIG

TAF (pilot weather forecast)

Closest forecast is ─░ncirlik Air Base, 43.4 nm (80.4 km) NW. Retrieved 2019/06/19 06:03 UTC (4 hours ago):

TAF LTAG 190440Z 1906/2006 VRB02KT 9999 SCT030 BECMG 1908/1910 19012KT TEMPO 1909/1912 -TSRA FEW020CB BKN030 BECMG 1916/1918 VRB02KT TEMPO 1920/1922 -SHRA BKN025 PROB40 TEMPO 2002/2006 5000 TSRA SCT020CB BKN030